ENSO/SRP METAR and TAF weather

Enter ICAO airport designator
Station Type Date Time Source
ENSO METAR 2019/06/26 17:20 UTC NOAA

ENSO 261720Z 33014KT 9999 FEW018 SCT023 12/07 Q1025


Station Type Date Time Source
ENSO Decoded METAR 2019/06/26 17:20 UTC NOAA

Stord / Soerstokken, Norway (ENSO) 59-48N 005-21E
Jun 26, 2019 - 01:20 PM EDT / 2019.06.26 1720 UTC
Wind: from the NNW (330 degrees) at 16 MPH (14 KT):0
Visibility: greater than 7 mile(s):0
Sky conditions: partly cloudy
Temperature: 53 F (12 C)
Dew Point: 44 F (7 C)
Relative Humidity: 71%
Pressure (altimeter): 30.27 in. Hg (1025 hPa)
ob: ENSO 261720Z 33014KT 9999 FEW018 SCT023 12/07 Q1025
cycle: 17

Station Type Date Time Source
ENSO TAF UTC NOAA

Error!

Example: see airport list